Time;durP1;ratioP1;P1;durP2;ratioP2;P2;SDS_P1;SDS_P2;PMS_P1;PMS_P2;Temp;Humidity;BMP_temperature;BMP_pressure;BME280_temperature;BME280_humidity;BME280_pressure;Samples;Min_cycle;Max_cycle;Signal;HPM_P1;HPM_P2
2023/12/05 00:00:25;;;;;;;8.50;5.33;;;-0.60;99.90;;;;;;4937215;28;20215;-63
2023/12/05 00:02:51;;;;;;;9.10;4.83;;;0.10;99.90;;;;;;4934339;28;20225;-63
2023/12/05 00:05:18;;;;;;;9.33;5.60;;;0.10;99.90;;;;;;4944910;28;20806;-63
2023/12/05 00:07:45;;;;;;;7.80;5.07;;;0.10;99.90;;;;;;4946312;28;20204;-63
2023/12/05 00:10:12;;;;;;;8.33;5.00;;;0.10;99.90;;;;;;4945425;28;20290;-63
2023/12/05 00:12:38;;;;;;;7.73;5.33;;;-0.20;99.90;;;;;;4913419;28;20537;-63
2023/12/05 00:15:08;;;;;;;6.97;4.73;;;0.10;99.90;;;;;;4948620;28;20222;-63
2023/12/05 00:17:35;;;;;;;8.60;5.23;;;0.10;99.90;;;;;;4925214;28;20218;-63
2023/12/05 00:20:02;;;;;;;13.77;5.77;;;0.50;99.90;;;;;;4937081;28;20753;-63
2023/12/05 00:22:29;;;;;;;10.90;5.77;;;0.10;99.90;;;;;;4946193;28;20214;-63
2023/12/05 00:24:56;;;;;;;12.70;5.70;;;0.10;99.90;;;;;;4945786;28;20234;-63
2023/12/05 00:27:23;;;;;;;9.93;5.27;;;;;;;;;;4915427;28;20202;-63
2023/12/05 00:29:50;;;;;;;6.07;4.20;;;0.90;99.90;;;;;;4941403;28;20208;-63
2023/12/05 00:32:19;;;;;;;10.03;5.70;;;0.10;99.90;;;;;;4937271;28;20213;-63
2023/12/05 00:34:46;;;;;;;7.40;4.80;;;0.00;99.90;;;;;;4932859;28;20299;-63
2023/12/05 00:37:13;;;;;;;9.63;5.93;;;0.00;99.90;;;;;;4946446;28;20243;-63
2023/12/05 00:39:40;;;;;;;9.80;5.50;;;-0.10;99.90;;;;;;4930770;28;20696;-63
2023/12/05 00:42:07;;;;;;;9.83;5.73;;;0.00;99.90;;;;;;4946536;28;20209;-63
2023/12/05 00:44:34;;;;;;;9.03;5.97;;;;;;;;;;4912306;28;20227;-63
2023/12/05 00:47:04;;;;;;;7.87;4.77;;;-0.10;99.90;;;;;;4939175;28;20211;-63
2023/12/05 00:49:34;;;;;;;9.07;5.50;;;-1.10;99.90;;;;;;4923634;28;20234;-65
2023/12/05 00:52:01;;;;;;;9.40;5.20;;;0.00;99.90;;;;;;4942868;28;20392;-63
2023/12/05 00:54:27;;;;;;;10.00;5.60;;;0.00;99.90;;;;;;4942666;28;20311;-63
2023/12/05 00:56:56;;;;;;;14.27;5.80;;;0.00;99.90;;;;;;4944293;28;20197;-63
2023/12/05 00:59:23;;;;;;;12.03;5.93;;;0.00;99.90;;;;;;4919889;28;20210;-63
2023/12/05 01:01:50;;;;;;;12.33;6.27;;;-0.10;99.90;;;;;;4929812;28;20336;-63
2023/12/05 01:04:17;;;;;;;10.30;6.00;;;;;;;;;;4927532;28;20207;-63
2023/12/05 01:06:45;;;;;;;12.03;6.03;;;-0.10;99.90;;;;;;4943363;28;20196;-63
2023/12/05 01:09:14;;;;;;;12.63;5.77;;;;;;;;;;4944089;28;20306;-63
2023/12/05 01:11:40;;;;;;;13.37;6.97;;;-0.80;99.90;;;;;;4941779;28;20218;-63
2023/12/05 01:14:07;;;;;;;10.20;6.00;;;-0.20;99.90;;;;;;4948192;28;20212;-63
2023/12/05 01:16:34;;;;;;;10.20;5.83;;;0.00;99.90;;;;;;4901059;28;20225;-63
2023/12/05 01:19:01;;;;;;;10.20;6.20;;;-0.20;99.90;;;;;;4925499;28;20221;-63
2023/12/05 01:21:28;;;;;;;8.93;5.97;;;-0.20;99.90;;;;;;4945673;28;20296;-63
2023/12/05 01:23:56;;;;;;;9.73;5.83;;;-0.10;99.90;;;;;;4944852;28;20301;-63
2023/12/05 01:26:23;;;;;;;9.47;5.87;;;-0.10;99.90;;;;;;4943503;28;20234;-63
2023/12/05 01:28:50;;;;;;;11.43;6.33;;;1.10;99.90;;;;;;4944444;28;20227;-63
2023/12/05 01:31:17;;;;;;;12.13;6.60;;;;;;;;;;4931300;28;20411;-63
2023/12/05 01:33:44;;;;;;;12.10;6.13;;;0.20;99.90;;;;;;4915641;28;20222;-63
2023/12/05 01:36:11;;;;;;;12.10;6.40;;;-0.10;99.90;;;;;;4936316;28;20253;-63
2023/12/05 01:38:39;;;;;;;11.07;6.07;;;0.40;99.90;;;;;;4934582;28;20688;-63
2023/12/05 01:41:08;;;;;;;13.23;6.43;;;-0.10;99.90;;;;;;4944336;28;20206;-63
2023/12/05 01:43:35;;;;;;;10.83;6.27;;;-0.10;99.90;;;;;;4943141;28;20277;-63
2023/12/05 01:46:03;;;;;;;9.60;5.93;;;-0.20;99.90;;;;;;4943686;28;20267;-63
2023/12/05 01:48:33;;;;;;;9.33;6.10;;;-0.20;99.90;;;;;;4899560;28;20211;-63
2023/12/05 01:51:02;;;;;;;13.23;6.40;;;-0.20;99.90;;;;;;4936474;28;20214;-63
2023/12/05 01:53:30;;;;;;;10.23;5.93;;;-0.10;99.90;;;;;;4940800;28;20691;-63
2023/12/05 01:55:58;;;;;;;9.97;6.30;;;-0.20;99.90;;;;;;4940234;28;20210;-65
2023/12/05 01:58:27;;;;;;;8.97;6.10;;;-0.20;99.90;;;;;;4939733;28;20213;-62
2023/12/05 02:00:55;;;;;;;11.13;6.37;;;-0.20;99.90;;;;;;4944283;28;20199;-62
2023/12/05 02:03:22;;;;;;;10.43;6.40;;;-0.30;99.90;;;;;;4909513;28;20231;-63
2023/12/05 02:05:49;;;;;;;11.20;5.80;;;-0.20;99.90;;;;;;4920664;28;20237;-63
2023/12/05 02:08:18;;;;;;;9.87;6.20;;;-0.20;99.90;;;;;;4951352;28;20999;-63
2023/12/05 02:10:45;;;;;;;10.70;6.07;;;-0.50;99.90;;;;;;4932019;28;20220;-63
2023/12/05 02:13:12;;;;;;;9.97;6.80;;;-0.20;99.90;;;;;;4946312;28;20300;-65
2023/12/05 02:15:41;;;;;;;11.97;6.43;;;-0.20;99.90;;;;;;4948595;28;20678;-65
2023/12/05 02:18:15;;;;;;;14.07;6.90;;;-0.20;99.90;;;;;;4907971;28;20209;-64
2023/12/05 02:20:47;;;;;;;9.70;6.20;;;-0.20;99.90;;;;;;4933448;28;20220;-65
2023/12/05 02:23:49;;;;;;;13.23;6.53;;;-0.20;99.90;;;;;;4950589;28;20947;-64
2023/12/05 02:26:28;;;;;;;11.33;6.20;;;-0.10;99.90;;;;;;4944534;28;20241;-64
2023/12/05 02:28:56;;;;;;;9.93;6.40;;;-0.20;99.90;;;;;;4948417;28;20204;-65
2023/12/05 02:31:23;;;;;;;10.23;6.17;;;-0.20;99.90;;;;;;4952110;28;20300;-65
2023/12/05 02:33:51;;;;;;;10.63;6.30;;;-0.20;99.90;;;;;;4915328;28;20676;-63
2023/12/05 02:36:24;;;;;;;12.30;6.00;;;-0.30;99.90;;;;;;4937456;28;20240;-62
2023/12/05 02:39:01;;;;;;;11.87;6.37;;;-0.30;99.90;;;;;;4926666;28;20375;-63
2023/12/05 02:41:31;;;;;;;10.33;6.33;;;-0.30;99.90;;;;;;4942032;28;20220;-63
2023/12/05 02:44:06;;;;;;;10.70;5.97;;;-0.20;99.90;;;;;;4946756;28;20224;-62
2023/12/05 02:46:34;;;;;;;16.90;6.97;;;;;;;;;;4947359;28;20234;-62
2023/12/05 02:49:02;;;;;;;10.77;6.43;;;0.30;99.90;;;;;;4906330;28;20218;-63
2023/12/05 02:51:29;;;;;;;11.90;6.47;;;-0.60;99.90;;;;;;4934716;28;20205;-63
2023/12/05 02:54:01;;;;;;;14.43;7.50;;;-0.30;99.90;;;;;;4932807;28;20250;-64
2023/12/05 02:56:29;;;;;;;15.23;7.40;;;0.30;99.90;;;;;;4936523;28;20210;-65
2023/12/05 02:58:55;;;;;;;11.93;7.20;;;-0.30;99.90;;;;;;4935186;28;20766;-64
2023/12/05 03:01:24;;;;;;;15.00;6.97;;;-0.30;99.90;;;;;;4933867;28;20210;-64
2023/12/05 03:03:51;;;;;;;12.93;8.13;;;;;;;;;;4907936;28;20226;-65
2023/12/05 03:06:18;;;;;;;13.80;7.40;;;0.20;99.90;;;;;;4938347;28;20234;-64
2023/12/05 03:08:45;;;;;;;12.97;6.63;;;-0.10;99.90;;;;;;4939844;28;20208;-65
2023/12/05 03:11:12;;;;;;;11.43;7.00;;;-0.30;99.90;;;;;;4942685;28;20233;-64
2023/12/05 03:13:41;;;;;;;11.53;6.67;;;-0.10;99.90;;;;;;4947136;28;20208;-64
2023/12/05 03:16:09;;;;;;;12.80;6.33;;;-0.10;99.90;;;;;;4929269;28;20213;-64
2023/12/05 03:18:37;;;;;;;9.53;7.10;;;-0.70;99.90;;;;;;4930657;28;20212;-64
2023/12/05 03:21:05;;;;;;;11.13;6.70;;;-0.10;99.90;;;;;;4900535;28;20218;-64
2023/12/05 03:23:32;;;;;;;10.90;7.17;;;-0.10;99.90;;;;;;4937142;28;23102;-64
2023/12/05 03:25:59;;;;;;;12.60;7.00;;;-0.10;99.90;;;;;;4937805;28;21032;-64
2023/12/05 03:28:26;;;;;;;13.00;7.23;;;-0.20;99.90;;;;;;4941342;28;20212;-64
2023/12/05 03:30:53;;;;;;;9.47;6.20;;;-0.10;99.90;;;;;;4942580;28;20697;-64
2023/12/05 03:33:20;;;;;;;10.60;6.87;;;-0.20;99.90;;;;;;4931471;28;20214;-64
2023/12/05 03:35:48;;;;;;;16.87;7.10;;;-0.10;99.90;;;;;;4911640;28;20231;-64
2023/12/05 03:38:15;;;;;;;11.67;6.43;;;-0.10;99.90;;;;;;4921346;28;20206;-65
2023/12/05 03:40:42;;;;;;;15.20;7.50;;;-0.10;99.90;;;;;;4927826;28;21235;-64
2023/12/05 03:43:08;;;;;;;10.33;6.53;;;0.60;99.90;;;;;;4941318;28;20215;-64
2023/12/05 03:45:35;;;;;;;15.80;7.90;;;-0.10;99.90;;;;;;4943316;28;20229;-65
2023/12/05 03:48:02;;;;;;;10.60;6.50;;;0.20;99.90;;;;;;4940924;28;20298;-65
2023/12/05 03:50:29;;;;;;;14.87;7.73;;;0.00;99.90;;;;;;4910533;28;20292;-65
2023/12/05 03:52:57;;;;;;;13.90;8.07;;;0.00;99.90;;;;;;4929300;28;20202;-64
2023/12/05 03:55:25;;;;;;;12.17;7.30;;;;;;;;;;4928303;28;20709;-64
2023/12/05 03:57:51;;;;;;;12.17;7.90;;;0.00;99.90;;;;;;4941963;28;20206;-64
2023/12/05 04:00:19;;;;;;;12.10;6.47;;;0.00;99.90;;;;;;4938486;28;20219;-64
2023/12/05 04:02:46;;;;;;;13.33;7.87;;;-0.10;99.90;;;;;;4943036;28;20208;-65
2023/12/05 04:05:13;;;;;;;13.40;7.23;;;-0.10;99.90;;;;;;4936959;28;20204;-64
2023/12/05 04:07:42;;;;;;;12.57;7.70;;;-0.10;99.90;;;;;;4898326;28;20244;-64
2023/12/05 04:10:10;;;;;;;14.03;8.10;;;-0.10;99.90;;;;;;4928085;28;20210;-64
2023/12/05 04:12:39;;;;;;;12.33;7.47;;;-0.10;99.90;;;;;;4931509;28;20201;-64
2023/12/05 04:15:07;;;;;;;11.47;7.30;;;-0.10;99.90;;;;;;4946296;28;20209;-64
2023/12/05 04:17:35;;;;;;;13.47;7.90;;;-0.10;99.90;;;;;;4947127;28;20202;-64
2023/12/05 04:20:04;;;;;;;13.83;7.73;;;0.10;99.90;;;;;;4942413;28;20233;-64
2023/12/05 04:22:31;;;;;;;14.00;7.90;;;-0.70;99.90;;;;;;4911831;28;20692;-64
2023/12/05 04:24:58;;;;;;;12.83;7.87;;;0.40;99.90;;;;;;4931619;28;20235;-64
2023/12/05 04:27:26;;;;;;;14.53;7.33;;;0.00;99.90;;;;;;4931962;28;20251;-64
2023/12/05 04:29:53;;;;;;;11.10;7.07;;;0.00;99.90;;;;;;4942329;28;20219;-64
2023/12/05 04:32:20;;;;;;;13.50;7.33;;;1.80;99.90;;;;;;4946578;28;20226;-65
2023/12/05 04:34:47;;;;;;;16.27;7.20;;;0.00;99.90;;;;;;4939522;28;20252;-64
2023/12/05 04:37:14;;;;;;;13.60;7.83;;;-0.10;99.90;;;;;;4907162;28;20237;-64
2023/12/05 04:39:41;;;;;;;11.33;7.43;;;-0.10;99.90;;;;;;4935412;28;20231;-64
2023/12/05 04:42:08;;;;;;;16.60;8.23;;;-0.10;99.90;;;;;;4923308;28;20341;-65
2023/12/05 04:44:37;;;;;;;14.83;8.57;;;0.10;99.90;;;;;;4939437;28;20241;-65
2023/12/05 04:47:04;;;;;;;12.30;7.93;;;0.00;99.90;;;;;;4940063;28;20269;-64
2023/12/05 04:49:31;;;;;;;12.67;7.87;;;0.00;99.90;;;;;;4941328;28;20825;-64
2023/12/05 04:51:58;;;;;;;15.20;7.90;;;-0.10;99.90;;;;;;4900466;28;28149;-65
2023/12/05 04:54:25;;;;;;;14.80;8.20;;;0.00;99.90;;;;;;4944659;28;20312;-64
2023/12/05 04:56:52;;;;;;;16.53;8.63;;;0.00;99.90;;;;;;4916250;28;20313;-65
2023/12/05 04:59:18;;;;;;;11.60;6.97;;;-0.10;99.90;;;;;;4938443;28;20320;-64
2023/12/05 05:01:47;;;;;;;14.13;8.20;;;-0.10;99.90;;;;;;4929341;28;20990;-65
2023/12/05 05:04:14;;;;;;;11.60;7.10;;;0.90;99.90;;;;;;4908153;28;20694;-64
2023/12/05 05:06:41;;;;;;;13.63;7.37;;;-0.10;99.90;;;;;;4921813;28;20239;-64
2023/12/05 05:09:08;;;;;;;13.70;7.97;;;0.00;99.90;;;;;;4902507;28;20235;-64
2023/12/05 05:11:35;;;;;;;12.57;7.53;;;;;;;;;;4930283;28;20256;-65
2023/12/05 05:14:02;;;;;;;14.97;8.27;;;0.60;99.90;;;;;;4924300;28;20233;-64
2023/12/05 05:16:29;;;;;;;13.77;8.30;;;-0.10;99.90;;;;;;4940602;28;21149;-65
2023/12/05 05:18:59;;;;;;;16.23;8.87;;;-0.10;99.90;;;;;;4937264;28;21027;-64
2023/12/05 05:21:25;;;;;;;11.70;7.80;;;0.70;99.90;;;;;;4945409;28;20723;-64
2023/12/05 05:23:52;;;;;;;14.73;8.27;;;-0.10;99.90;;;;;;4906274;28;20230;-65
2023/12/05 05:26:19;;;;;;;13.70;8.50;;;-0.10;99.90;;;;;;4930061;28;20402;-65
2023/12/05 05:28:46;;;;;;;16.03;8.70;;;0.50;99.90;;;;;;4929558;28;20225;-65
2023/12/05 05:31:13;;;;;;;15.80;7.63;;;0.00;99.90;;;;;;4933430;28;20224;-64
2023/12/05 05:33:40;;;;;;;12.60;7.63;;;0.80;99.90;;;;;;4940502;28;20454;-64
2023/12/05 05:36:09;;;;;;;11.57;7.70;;;;;;;;;;4934289;28;21118;-65
2023/12/05 05:38:37;;;;;;;14.97;7.83;;;;;;;;;;4936610;28;20218;-64
2023/12/05 05:41:06;;;;;;;15.30;8.83;;;-0.50;99.90;;;;;;4905887;28;20824;-65
2023/12/05 05:43:33;;;;;;;13.07;8.47;;;0.00;99.90;;;;;;4916170;28;20301;-64
2023/12/05 05:46:00;;;;;;;13.90;8.70;;;-0.20;99.90;;;;;;4929764;28;21025;-64
2023/12/05 05:48:27;;;;;;;15.67;8.17;;;;;;;;;;4927166;28;20311;-64
2023/12/05 05:50:54;;;;;;;12.97;8.07;;;0.00;99.90;;;;;;4938143;28;20221;-65
2023/12/05 05:53:22;;;;;;;13.30;7.80;;;0.00;99.90;;;;;;4941956;28;20224;-65
2023/12/05 05:55:49;;;;;;;14.50;8.77;;;0.10;99.90;;;;;;4885032;28;20236;-62
2023/12/05 05:58:16;;;;;;;12.73;7.53;;;0.00;99.90;;;;;;4912892;28;20214;-62
2023/12/05 06:00:43;;;;;;;16.47;8.07;;;0.60;99.90;;;;;;4920001;28;20217;-64
2023/12/05 06:03:10;;;;;;;14.03;7.97;;;0.00;99.90;;;;;;4908893;28;20233;-64
2023/12/05 06:05:36;;;;;;;14.63;8.70;;;0.00;99.90;;;;;;4933641;28;20221;-64
2023/12/05 06:08:04;;;;;;;13.57;8.37;;;0.00;99.90;;;;;;4928553;28;20238;-65
2023/12/05 06:10:32;;;;;;;14.87;8.37;;;0.10;99.90;;;;;;4899831;28;20307;-64
2023/12/05 06:12:59;;;;;;;15.40;8.47;;;0.00;99.90;;;;;;4910963;28;20372;-64
2023/12/05 06:15:26;;;;;;;17.47;8.83;;;-1.10;99.90;;;;;;4927678;28;20256;-63
2023/12/05 06:17:53;;;;;;;18.70;9.43;;;0.30;99.90;;;;;;4914875;28;20776;-65
2023/12/05 06:20:20;;;;;;;17.57;9.80;;;0.00;99.90;;;;;;4931615;28;20244;-63
2023/12/05 06:22:47;;;;;;;16.37;10.13;;;0.00;99.90;;;;;;4926364;28;20230;-65
2023/12/05 06:25:14;;;;;;;13.90;8.57;;;0.00;99.90;;;;;;4905508;28;22178;-65
2023/12/05 06:27:44;;;;;;;15.07;9.17;;;0.50;99.90;;;;;;4933465;28;20236;-63
2023/12/05 06:30:13;;;;;;;15.60;9.13;;;0.00;99.90;;;;;;4935324;28;20436;-63
2023/12/05 06:32:39;;;;;;;16.97;9.40;;;-0.10;99.90;;;;;;4948639;28;20218;-63
2023/12/05 06:35:07;;;;;;;13.40;8.33;;;0.00;99.90;;;;;;4935309;28;20232;-63
2023/12/05 06:37:34;;;;;;;13.57;8.00;;;0.00;99.90;;;;;;4944536;28;20238;-62
2023/12/05 06:40:01;;;;;;;18.87;9.10;;;0.10;99.90;;;;;;4914305;28;20240;-63
2023/12/05 06:42:28;;;;;;;17.13;9.13;;;-0.10;99.90;;;;;;4925973;28;20242;-62
2023/12/05 06:44:56;;;;;;;14.27;8.77;;;0.00;99.90;;;;;;4944844;28;20615;-63
2023/12/05 06:47:23;;;;;;;14.97;8.23;;;0.00;99.90;;;;;;4932863;28;20240;-62
2023/12/05 06:49:50;;;;;;;20.20;9.37;;;;;;;;;;4939032;28;20633;-62
2023/12/05 06:52:19;;;;;;;13.87;8.27;;;-0.10;99.90;;;;;;4944723;28;20226;-62
2023/12/05 06:54:46;;;;;;;17.37;9.60;;;-0.10;99.90;;;;;;4937001;28;20690;-63
2023/12/05 06:57:13;;;;;;;13.43;9.00;;;0.00;99.90;;;;;;4909951;28;20304;-63
2023/12/05 06:59:40;;;;;;;13.77;8.00;;;-0.10;99.90;;;;;;4953570;28;20219;-63
2023/12/05 07:02:08;;;;;;;15.53;9.00;;;0.10;99.90;;;;;;4933131;28;20203;-63
2023/12/05 07:04:35;;;;;;;20.40;10.17;;;-0.20;99.90;;;;;;4939127;28;20228;-63
2023/12/05 07:07:02;;;;;;;19.20;9.73;;;-0.20;99.90;;;;;;4947410;28;20239;-64
2023/12/05 07:09:29;;;;;;;16.43;9.13;;;0.20;99.90;;;;;;4948937;28;20309;-63
2023/12/05 07:11:56;;;;;;;16.30;9.37;;;1.40;99.90;;;;;;4925935;28;20200;-63
2023/12/05 07:14:23;;;;;;;14.10;9.27;;;-0.10;99.90;;;;;;4927892;28;20437;-63
2023/12/05 07:16:50;;;;;;;18.90;10.30;;;-0.10;99.90;;;;;;4949871;28;20239;-63
2023/12/05 07:19:18;;;;;;;16.83;9.97;;;0.10;99.90;;;;;;4925123;28;23060;-63
2023/12/05 07:21:45;;;;;;;21.00;10.37;;;-0.50;99.90;;;;;;4948151;28;20202;-62
2023/12/05 07:24:12;;;;;;;15.50;9.77;;;0.50;99.90;;;;;;4942333;28;20212;-63
2023/12/05 07:26:39;;;;;;;18.13;9.80;;;-0.20;99.90;;;;;;4941491;28;20516;-62
2023/12/05 07:29:06;;;;;;;19.87;10.10;;;-0.20;99.90;;;;;;4907861;28;20950;-63
2023/12/05 07:31:33;;;;;;;15.87;10.30;;;-0.20;99.90;;;;;;4949496;28;20196;-64
2023/12/05 07:34:00;;;;;;;12.87;8.50;;;-0.10;99.90;;;;;;4938468;28;20657;-63
2023/12/05 07:36:28;;;;;;;14.93;8.77;;;0.40;99.90;;;;;;4941017;28;20689;-63
2023/12/05 07:38:55;;;;;;;15.87;9.30;;;0.00;99.90;;;;;;4945616;28;20206;-63
2023/12/05 07:41:23;;;;;;;18.13;10.07;;;-0.20;99.90;;;;;;4903152;28;20215;-62
2023/12/05 07:43:50;;;;;;;19.53;10.73;;;0.00;99.90;;;;;;4900428;28;20237;-63
2023/12/05 07:46:18;;;;;;;17.20;9.33;;;0.00;99.90;;;;;;4933466;28;20223;-63
2023/12/05 07:48:45;;;;;;;19.77;10.70;;;-1.60;99.90;;;;;;4930679;28;20242;-63
2023/12/05 07:51:15;;;;;;;19.53;10.60;;;-0.10;99.90;;;;;;4932014;28;20204;-63
2023/12/05 07:53:47;;;;;;;20.13;10.20;;;;;;;;;;4942082;28;20252;-63
2023/12/05 07:56:14;;;;;;;19.83;10.50;;;-0.10;99.90;;;;;;4936374;28;20243;-63
2023/12/05 07:58:41;;;;;;;15.47;9.43;;;0.70;99.90;;;;;;4903908;28;20238;-63
2023/12/05 08:01:08;;;;;;;22.23;11.00;;;-0.10;99.90;;;;;;4930449;28;20325;-65
2023/12/05 08:03:35;;;;;;;17.43;9.27;;;;;;;;;;4944724;28;20230;-65
2023/12/05 08:06:02;;;;;;;18.17;10.70;;;-0.10;99.90;;;;;;4929697;28;20220;-66
2023/12/05 08:08:31;;;;;;;17.63;10.23;;;0.10;99.90;;;;;;4928763;28;20792;-65
2023/12/05 08:10:59;;;;;;;17.50;10.20;;;-0.10;99.90;;;;;;4935273;28;20755;-63
2023/12/05 08:13:27;;;;;;;19.87;10.30;;;-0.10;99.90;;;;;;4932226;28;20293;-63
2023/12/05 08:15:54;;;;;;;15.27;10.00;;;0.50;99.90;;;;;;4919962;28;21081;-62
2023/12/05 08:18:21;;;;;;;19.03;10.53;;;0.00;99.90;;;;;;4948125;28;20306;-63
2023/12/05 08:20:48;;;;;;;17.80;10.40;;;0.00;99.90;;;;;;4937145;28;20285;-64
2023/12/05 08:23:15;;;;;;;17.27;10.17;;;0.00;99.90;;;;;;4937040;28;20202;-64
2023/12/05 08:25:42;;;;;;;16.13;10.30;;;0.00;99.90;;;;;;4941008;28;20230;-63
2023/12/05 08:28:10;;;;;;;15.97;10.13;;;0.10;99.90;;;;;;4937441;28;20255;-63
2023/12/05 08:30:37;;;;;;;21.13;10.47;;;;;;;;;;4896456;28;20230;-63
2023/12/05 08:33:06;;;;;;;16.93;10.43;;;;;;;;;;4944620;28;20781;-65
2023/12/05 08:35:33;;;;;;;18.27;10.53;;;;;;;;;;4932875;28;20711;-63
2023/12/05 08:38:00;;;;;;;18.67;10.77;;;0.10;99.90;;;;;;4944943;28;20229;-63
2023/12/05 08:40:27;;;;;;;18.50;10.13;;;0.00;99.90;;;;;;4929476;28;20231;-62
2023/12/05 08:42:54;;;;;;;19.17;11.53;;;0.10;99.90;;;;;;4928189;28;20225;-63
2023/12/05 08:45:22;;;;;;;21.00;10.70;;;;;;;;;;4907934;28;20365;-62
2023/12/05 08:47:52;;;;;;;17.70;10.63;;;0.00;99.90;;;;;;4943636;28;20243;-63
2023/12/05 08:50:19;;;;;;;16.93;10.70;;;0.70;99.90;;;;;;4946587;28;20227;-63
2023/12/05 08:52:46;;;;;;;21.30;11.77;;;0.20;99.90;;;;;;4934061;28;20224;-63
2023/12/05 08:55:14;;;;;;;18.27;10.90;;;0.20;99.90;;;;;;4939984;28;20342;-63
2023/12/05 08:57:41;;;;;;;21.93;11.97;;;0.10;99.90;;;;;;4938688;28;20205;-63
2023/12/05 09:00:08;;;;;;;17.77;11.30;;;0.20;99.90;;;;;;4948065;28;20288;-62
2023/12/05 09:02:37;;;;;;;15.93;9.97;;;0.20;99.90;;;;;;4905101;28;20218;-62
2023/12/05 09:05:05;;;;;;;17.10;9.73;;;0.20;99.90;;;;;;4944627;28;20207;-62
2023/12/05 09:07:32;;;;;;;18.67;10.70;;;0.10;99.90;;;;;;4934843;28;21404;-63
2023/12/05 09:09:59;;;;;;;19.63;11.70;;;0.00;99.90;;;;;;4939678;28;20209;-64
2023/12/05 09:12:26;;;;;;;18.30;10.93;;;0.20;99.90;;;;;;4943114;28;20204;-65
2023/12/05 09:14:53;;;;;;;17.73;10.93;;;0.20;99.90;;;;;;4939097;28;20972;-62
2023/12/05 09:17:20;;;;;;;18.03;10.43;;;0.20;99.90;;;;;;4890707;28;20802;-63
2023/12/05 09:19:50;;;;;;;17.83;9.93;;;0.50;99.90;;;;;;4943114;28;20213;-63
2023/12/05 09:22:17;;;;;;;16.20;10.57;;;-0.60;99.90;;;;;;4921594;28;20699;-62
2023/12/05 09:24:44;;;;;;;19.70;10.23;;;0.10;99.90;;;;;;4938488;28;20313;-63
2023/12/05 09:27:11;;;;;;;17.07;10.07;;;-0.50;99.90;;;;;;4931121;28;20213;-63
2023/12/05 09:29:39;;;;;;;18.10;11.30;;;0.20;99.90;;;;;;4934038;28;20211;-63
2023/12/05 09:32:06;;;;;;;17.40;10.10;;;0.20;99.90;;;;;;4911331;28;20211;-63
2023/12/05 09:34:33;;;;;;;21.90;11.77;;;0.20;99.90;;;;;;4946545;28;20229;-63
2023/12/05 09:37:02;;;;;;;18.53;10.37;;;0.30;99.90;;;;;;4930320;28;20230;-63
2023/12/05 09:39:31;;;;;;;18.73;10.87;;;0.30;99.90;;;;;;4931383;28;20265;-63
2023/12/05 09:42:03;;;;;;;21.40;10.87;;;0.20;99.90;;;;;;4937673;28;20229;-63
2023/12/05 09:44:32;;;;;;;20.70;11.37;;;0.20;99.90;;;;;;4941232;28;20705;-63
2023/12/05 09:47:01;;;;;;;19.90;10.80;;;0.30;99.90;;;;;;4949047;28;20305;-63
2023/12/05 09:49:29;;;;;;;19.63;11.23;;;0.20;99.90;;;;;;4907768;28;20272;-62
2023/12/05 09:51:56;;;;;;;17.57;10.10;;;0.20;99.90;;;;;;4938265;28;20210;-63
2023/12/05 09:54:26;;;;;;;18.80;10.93;;;0.30;99.90;;;;;;4934371;28;20225;-63
2023/12/05 09:56:55;;;;;;;19.50;11.13;;;0.50;99.90;;;;;;4941009;28;21122;-62
2023/12/05 09:59:22;;;;;;;20.93;11.70;;;;;;;;;;4934603;28;20680;-63
2023/12/05 10:01:50;;;;;;;18.13;10.07;;;0.20;99.90;;;;;;4943905;28;20215;-62
2023/12/05 10:04:18;;;;;;;21.30;10.93;;;0.30;99.90;;;;;;4910168;28;20214;-63
2023/12/05 10:06:48;;;;;;;18.60;11.93;;;0.30;99.90;;;;;;4948638;28;20201;-63
2023/12/05 10:09:16;;;;;;;17.63;11.00;;;0.50;99.90;;;;;;4925647;28;20248;-63
2023/12/05 10:11:46;;;;;;;18.93;11.00;;;0.30;99.90;;;;;;4941933;28;20232;-63
2023/12/05 10:14:13;;;;;;;22.50;10.70;;;0.40;99.90;;;;;;4934179;28;20242;-63
2023/12/05 10:16:40;;;;;;;21.27;11.43;;;0.30;99.90;;;;;;4938701;28;20375;-63
2023/12/05 10:19:10;;;;;;;19.70;10.97;;;0.30;99.90;;;;;;4911862;28;20208;-63
2023/12/05 10:21:37;;;;;;;19.80;11.13;;;0.40;99.90;;;;;;4943241;28;20675;-63
2023/12/05 10:24:05;;;;;;;21.27;11.37;;;0.80;99.90;;;;;;4932013;28;20226;-63
2023/12/05 10:26:32;;;;;;;21.03;11.87;;;-2.60;99.90;;;;;;4932842;28;21000;-63
2023/12/05 10:29:00;;;;;;;22.63;11.90;;;0.50;99.90;;;;;;4918526;28;20234;-63
2023/12/05 10:31:28;;;;;;;20.93;12.10;;;0.40;99.90;;;;;;4936469;28;21092;-63
2023/12/05 10:34:05;;;;;;;22.13;11.77;;;;;;;;;;4905039;28;20316;-63
2023/12/05 10:36:32;;;;;;;19.97;11.27;;;0.40;99.90;;;;;;4945788;28;20727;-63
2023/12/05 10:38:59;;;;;;;20.80;11.40;;;0.30;99.90;;;;;;4934798;28;20350;-63
2023/12/05 10:41:29;;;;;;;21.87;11.53;;;0.30;99.90;;;;;;4936022;28;20232;-63
2023/12/05 10:43:56;;;;;;;20.93;11.07;;;0.90;99.90;;;;;;4931888;28;20229;-63
2023/12/05 10:46:26;;;;;;;23.00;11.70;;;0.40;99.90;;;;;;4945398;28;20221;-63
2023/12/05 10:48:54;;;;;;;21.87;11.87;;;0.40;99.90;;;;;;4931278;28;20462;-63
2023/12/05 10:51:24;;;;;;;20.97;11.13;;;0.40;99.90;;;;;;4910031;28;20710;-63
2023/12/05 10:53:51;;;;;;;24.40;11.73;;;0.80;99.90;;;;;;4929475;28;20483;-63
2023/12/05 10:56:19;;;;;;;20.60;12.43;;;0.40;99.90;;;;;;4936399;28;20227;-63
2023/12/05 10:58:48;;;;;;;22.27;12.10;;;-0.60;99.90;;;;;;4932097;28;20597;-63
2023/12/05 11:01:17;;;;;;;26.87;12.73;;;0.40;99.90;;;;;;4927010;28;20340;-63
2023/12/05 11:03:46;;;;;;;24.20;12.20;;;0.40;99.90;;;;;;4926641;28;20728;-63
2023/12/05 11:06:13;;;;;;;21.83;11.97;;;0.40;99.90;;;;;;4904719;28;20237;-63
2023/12/05 11:08:40;;;;;;;21.57;12.60;;;0.30;99.90;;;;;;4940152;28;20249;-63
2023/12/05 11:11:08;;;;;;;20.57;11.67;;;0.40;99.90;;;;;;4919785;28;20240;-63
2023/12/05 11:13:36;;;;;;;23.23;12.00;;;0.40;99.90;;;;;;4941189;28;20321;-63
2023/12/05 11:16:10;;;;;;;25.47;12.87;;;0.40;99.90;;;;;;4938963;28;20237;-63
2023/12/05 11:18:39;;;;;;;20.60;11.47;;;0.30;99.90;;;;;;4933485;28;20259;-63
2023/12/05 11:21:29;;;;;;;21.97;12.87;;;0.10;99.90;;;;;;4909631;28;22235;-63
2023/12/05 11:24:18;;;;;;;21.03;12.40;;;0.40;99.90;;;;;;4945171;28;20821;-63
2023/12/05 11:27:10;;;;;;;20.43;11.67;;;0.40;99.90;;;;;;4919287;28;20532;-63
2023/12/05 11:29:57;;;;;;;19.17;11.30;;;0.50;99.90;;;;;;4945046;28;20230;-63
2023/12/05 11:32:34;;;;;;;22.50;12.90;;;-0.20;99.90;;;;;;4945221;28;20204;-63
2023/12/05 11:35:11;;;;;;;23.23;11.97;;;0.50;99.90;;;;;;4938071;28;20211;-65
2023/12/05 11:38:07;;;;;;;21.47;11.93;;;0.40;99.90;;;;;;4901851;28;20233;-63
2023/12/05 11:40:34;;;;;;;21.70;12.13;;;0.40;99.90;;;;;;4918920;28;20207;-63
2023/12/05 11:43:08;;;;;;;25.33;12.63;;;0.50;99.90;;;;;;4931435;28;20306;-62
2023/12/05 11:45:38;;;;;;;25.67;12.20;;;-0.80;99.90;;;;;;4931792;28;20834;-63
2023/12/05 11:48:05;;;;;;;23.70;13.70;;;0.50;99.90;;;;;;4943821;28;20215;-63
2023/12/05 11:50:42;;;;;;;24.47;12.00;;;0.40;99.90;;;;;;4939580;28;22086;-64
2023/12/05 11:53:14;;;;;;;22.43;11.87;;;0.40;99.90;;;;;;4915153;28;20233;-63
2023/12/05 11:55:42;;;;;;;20.93;12.13;;;0.50;99.90;;;;;;4945843;28;20218;-63
2023/12/05 11:58:28;;;;;;;22.30;12.30;;;0.50;99.90;;;;;;4933651;28;20214;-63
2023/12/05 12:01:02;;;;;;;24.73;12.57;;;0.50;99.90;;;;;;4918184;28;20266;-63
2023/12/05 12:03:43;;;;;;;25.20;13.57;;;1.20;99.90;;;;;;4947380;28;20232;-63
2023/12/05 12:06:11;;;;;;;24.03;14.37;;;0.40;99.90;;;;;;4940782;28;20217;-63
2023/12/05 12:08:40;;;;;;;22.33;13.37;;;0.40;99.90;;;;;;4914363;28;20230;-63
2023/12/05 12:11:07;;;;;;;25.80;13.77;;;0.40;99.90;;;;;;4941541;28;20580;-63
2023/12/05 12:13:35;;;;;;;22.77;12.30;;;0.40;99.90;;;;;;4937391;28;20208;-63
2023/12/05 12:16:02;;;;;;;21.07;11.47;;;0.40;99.90;;;;;;4940410;28;20210;-63
2023/12/05 12:18:30;;;;;;;22.60;12.53;;;0.40;99.90;;;;;;4940296;28;20929;-63
2023/12/05 12:20:58;;;;;;;21.27;12.30;;;0.40;99.90;;;;;;4940989;28;20356;-63
2023/12/05 12:23:25;;;;;;;22.50;12.67;;;0.40;99.90;;;;;;4912362;28;20211;-63
2023/12/05 12:25:57;;;;;;;22.17;12.13;;;0.40;99.90;;;;;;4949412;28;20208;-63
2023/12/05 12:28:26;;;;;;;23.60;13.00;;;0.40;99.90;;;;;;4934837;28;20235;-63
2023/12/05 12:30:53;;;;;;;21.60;12.87;;;0.30;99.90;;;;;;4920787;28;20283;-63
2023/12/05 12:33:22;;;;;;;21.80;12.57;;;;;;;;;;4923263;28;20212;-65
2023/12/05 12:35:50;;;;;;;25.37;13.20;;;0.60;99.90;;;;;;4935620;28;20838;-63
2023/12/05 12:38:18;;;;;;;23.63;12.63;;;;;;;;;;4911570;28;20215;-66
2023/12/05 12:40:45;;;;;;;23.80;13.10;;;0.30;99.90;;;;;;4927642;28;20205;-63
2023/12/05 12:43:15;;;;;;;24.77;12.70;;;0.20;99.90;;;;;;4941083;28;20214;-65
2023/12/05 12:45:42;;;;;;;21.57;12.50;;;0.40;99.90;;;;;;4925934;28;20335;-65
2023/12/05 12:48:10;;;;;;;18.63;12.53;;;0.30;99.90;;;;;;4934475;28;20208;-65
2023/12/05 12:50:37;;;;;;;25.57;13.53;;;0.30;99.90;;;;;;4914948;28;20318;-63
2023/12/05 12:53:06;;;;;;;25.53;12.77;;;-0.50;99.90;;;;;;4920356;28;20425;-65